Time;durP1;ratioP1;P1;durP2;ratioP2;P2;SDS_P1;SDS_P2;PMS_P1;PMS_P2;Temp;Humidity;BMP_temperature;BMP_pressure;BME280_temperature;BME280_humidity;BME280_pressure;Samples;Min_cycle;Max_cycle;Signal;HPM_P1;HPM_P2
2022/03/18 00:00:18;;;;;;;17.35;11.55;;;;;;;1.31;74.93;96334.03;5019365;28;20032;-68
2022/03/18 00:02:44;;;;;;;18.35;11.60;;;;;;;1.27;74.93;96348.59;5036051;28;20044;-68
2022/03/18 00:05:11;;;;;;;17.65;11.50;;;;;;;1.28;75.36;96342.59;5018842;28;20488;-68
2022/03/18 00:07:37;;;;;;;19.77;12.15;;;;;;;1.35;75.29;96345.88;5049907;28;20162;-69
2022/03/18 00:10:03;;;;;;;18.08;12.23;;;;;;;1.36;74.85;96351.81;5034012;28;20478;-68
2022/03/18 00:12:28;;;;;;;19.05;12.48;;;;;;;1.45;74.54;96351.59;5037300;28;20034;-68
2022/03/18 00:14:54;;;;;;;16.85;11.18;;;;;;;1.41;74.06;96355.13;5032223;28;20530;-68
2022/03/18 00:17:19;;;;;;;14.70;10.02;;;;;;;1.41;73.51;96355.13;5016679;28;20423;-68
2022/03/18 00:19:45;;;;;;;13.60;9.18;;;;;;;1.46;71.50;96353.31;5015020;28;20045;-68
2022/03/18 00:22:12;;;;;;;11.23;8.40;;;;;;;1.43;71.26;96358.50;5032518;28;20041;-68
2022/03/18 00:24:37;;;;;;;13.50;9.63;;;;;;;1.36;72.18;96349.25;5047157;28;20171;-68
2022/03/18 00:27:03;;;;;;;13.65;9.15;;;;;;;1.21;72.55;96346.16;5039166;28;20491;-68
2022/03/18 00:29:29;;;;;;;14.23;9.80;;;;;;;1.19;72.74;96355.59;5033000;28;20030;-68
2022/03/18 00:31:54;;;;;;;13.57;9.32;;;;;;;1.31;72.01;96362.19;5019331;28;20396;-68
2022/03/18 00:34:20;;;;;;;16.17;10.77;;;;;;;1.23;71.35;96341.03;5034791;28;20033;-68
2022/03/18 00:36:45;;;;;;;16.02;11.18;;;;;;;1.28;71.95;96360.53;5035614;28;20095;-68
2022/03/18 00:39:11;;;;;;;13.73;10.13;;;;;;;1.23;71.71;96362.34;5039462;28;20492;-69
2022/03/18 00:41:36;;;;;;;14.52;10.15;;;;;;;1.22;71.96;96362.38;5032140;28;20041;-68
2022/03/18 00:44:02;;;;;;;14.93;10.60;;;;;;;1.18;72.86;96368.44;5051113;28;20033;-68
2022/03/18 00:46:27;;;;;;;14.02;10.27;;;;;;;1.31;72.26;96367.31;5033439;28;20033;-68
2022/03/18 00:54:21;;;;;;;15.43;10.10;;;;;;;1.08;71.86;96366.06;5040539;28;20469;-68
2022/03/18 00:56:46;;;;;;;13.35;9.98;;;;;;;1.10;72.01;96378.84;5031405;28;20033;-68
2022/03/18 00:59:12;;;;;;;15.13;11.10;;;;;;;1.12;72.47;96371.97;5031293;28;20022;-68
2022/03/18 01:01:37;;;;;;;16.02;10.80;;;;;;;1.11;71.76;96372.81;5031489;28;20491;-68
2022/03/18 01:04:03;;;;;;;16.23;10.27;;;;;;;1.05;71.83;96371.25;5048598;28;20037;-68
2022/03/18 01:06:29;;;;;;;13.98;9.77;;;;;;;1.04;72.25;96379.81;5019088;28;20466;-68
2022/03/18 01:08:54;;;;;;;15.13;10.07;;;;;;;0.96;72.33;96381.66;5022009;28;20052;-68
2022/03/18 01:11:20;;;;;;;13.15;9.73;;;;;;;0.84;72.80;96387.03;5032858;28;20045;-69
2022/03/18 01:13:45;;;;;;;13.85;10.02;;;;;;;0.79;72.88;96389.69;5016108;28;20029;-68
2022/03/18 01:16:11;;;;;;;16.08;10.10;;;;;;;0.87;73.21;96376.75;5032960;28;20550;-68
2022/03/18 01:18:36;;;;;;;16.23;10.80;;;;;;;0.87;73.39;96376.75;5039703;28;20049;-68
2022/03/18 01:21:02;;;;;;;16.98;11.23;;;;;;;0.82;73.57;96383.66;5014075;28;20026;-68
2022/03/18 01:23:27;;;;;;;18.83;12.95;;;;;;;0.87;72.63;96382.72;5032125;28;20136;-68
2022/03/18 01:25:54;;;;;;;17.55;12.57;;;;;;;0.91;72.62;96380.91;5031033;28;20049;-68
2022/03/18 01:28:19;;;;;;;17.98;12.18;;;;;;;0.97;72.14;96375.66;5030561;28;20083;-69
2022/03/18 01:30:45;;;;;;;16.48;12.18;;;;;;;0.82;72.66;96381.09;5038342;28;20487;-68
2022/03/18 01:33:10;;;;;;;15.40;10.45;;;;;;;0.88;71.62;96383.53;5033810;28;20037;-68
2022/03/18 01:35:37;;;;;;;13.98;9.93;;;;;;;0.75;71.67;96367.56;5050557;28;20039;-68
2022/03/18 01:38:02;;;;;;;15.88;10.75;;;;;;;0.75;72.43;96379.53;5050253;28;20116;-68
2022/03/18 01:40:28;;;;;;;12.98;9.88;;;;;;;0.72;72.48;96371.91;5050278;28;20155;-68
2022/03/18 01:42:54;;;;;;;13.90;9.77;;;;;;;0.68;72.90;96375.44;5013478;28;20061;-68
2022/03/18 01:45:19;;;;;;;14.43;11.02;;;;;;;0.72;72.53;96379.59;5014190;28;20115;-68
2022/03/18 01:47:45;;;;;;;15.38;11.30;;;;;;;0.60;73.37;96381.50;5029777;28;20036;-68
2022/03/18 01:50:11;;;;;;;16.92;12.10;;;;;;;0.58;73.59;96384.97;5047787;28;20043;-68
2022/03/18 01:52:37;;;;;;;15.55;10.85;;;;;;;0.58;73.20;96380.69;5039659;28;20048;-68
2022/03/18 01:55:03;;;;;;;16.33;12.02;;;;;;;0.52;73.34;96375.69;5030371;28;20037;-68
2022/03/18 01:57:28;;;;;;;16.67;11.10;;;;;;;0.63;72.77;96391.69;5031421;28;20037;-68
2022/03/18 01:59:54;;;;;;;15.40;10.43;;;;;;;0.61;72.60;96395.13;5013670;28;20036;-68
2022/03/18 02:02:19;;;;;;;14.55;10.98;;;;;;;0.52;73.22;96392.75;5038756;28;20418;-68
2022/03/18 02:04:45;;;;;;;14.05;10.50;;;;;;;0.37;72.80;96383.66;5025472;28;20026;-68
2022/03/18 02:07:11;;;;;;;15.50;11.95;;;;;;;0.39;73.35;96393.00;5039292;28;20045;-68
2022/03/18 02:09:37;;;;;;;16.15;11.80;;;;;;;0.30;74.37;96398.25;5046281;28;20457;-68
2022/03/18 02:12:02;;;;;;;17.40;12.05;;;;;;;0.35;73.82;96398.19;5016513;28;20032;-68
2022/03/18 02:14:31;;;;;;;17.35;12.68;;;;;;;0.27;73.37;96398.31;5030412;28;20113;-68
2022/03/18 02:16:56;;;;;;;17.65;12.55;;;;;;;0.29;74.14;96399.13;5032189;28;20033;-68
2022/03/18 02:19:22;;;;;;;16.65;12.02;;;;;;;0.44;73.36;96400.56;5034006;28;20437;-68
2022/03/18 02:21:47;;;;;;;14.93;11.05;;;;;;;0.47;72.67;96394.56;5040200;28;20040;-68
2022/03/18 02:24:13;;;;;;;13.75;10.32;;;;;;;0.41;72.07;96401.47;5016150;28;20535;-68
2022/03/18 02:26:38;;;;;;;13.05;10.85;;;;;;;0.31;72.27;96399.97;5032952;28;20037;-68
2022/03/18 02:29:04;;;;;;;14.13;10.88;;;;;;;0.25;73.20;96400.03;5048046;28;20044;-68
2022/03/18 02:31:30;;;;;;;14.98;11.00;;;;;;;0.23;72.44;96409.47;5049522;28;20033;-68
2022/03/18 02:33:56;;;;;;;13.15;10.88;;;;;;;0.10;73.53;96405.41;5012608;28;20115;-68
2022/03/18 02:36:21;;;;;;;17.30;11.75;;;;;;;0.12;73.29;96407.09;5013171;28;20488;-68
2022/03/18 02:38:46;;;;;;;15.35;11.68;;;;;;;0.09;73.08;96413.97;5030918;28;20109;-68
2022/03/18 02:41:12;;;;;;;13.18;10.07;;;;;;;0.03;71.22;96414.03;5048563;28;20075;-68
2022/03/18 02:43:38;;;;;;;14.88;11.02;;;;;;;-0.03;72.30;96420.09;5048753;28;20080;-68
2022/03/18 02:46:04;;;;;;;13.65;10.18;;;;;;;0.06;72.37;96411.47;5049684;28;20116;-68
2022/03/18 02:48:29;;;;;;;14.20;10.82;;;;;;;0.12;72.48;96421.59;5046019;28;20048;-68
2022/03/18 02:50:55;;;;;;;14.50;10.95;;;;;;;0.13;72.69;96415.59;5017067;28;20022;-68
2022/03/18 02:53:20;;;;;;;14.80;11.48;;;;;;;0.18;72.01;96418.91;5023253;28;20045;-68
2022/03/18 02:55:46;;;;;;;16.35;12.35;;;;;;;0.21;71.66;96427.38;5016712;28;20036;-68
2022/03/18 02:58:11;;;;;;;17.95;12.93;;;;;;;0.30;71.71;96431.47;5046098;28;20033;-68
2022/03/18 03:00:36;;;;;;;19.30;13.43;;;;;;;0.32;71.28;96434.88;5046430;28;20056;-68
2022/03/18 03:03:02;;;;;;;18.83;13.18;;;;;;;0.27;70.69;96439.22;5017380;28;20120;-68
2022/03/18 03:08:12;;;;;;;20.13;13.73;;;;;;;0.42;70.49;96446.63;5053401;28;20040;-68
2022/03/18 03:10:38;;;;;;;23.95;16.30;;;;;;;0.45;70.33;96453.41;5051500;28;20033;-68
2022/03/18 03:13:06;;;;;;;24.48;17.73;;;;;;;0.78;70.58;96453.66;5040206;28;20401;-68
2022/03/18 03:15:31;;;;;;;23.73;17.05;;;;;;;0.63;70.50;96444.56;5046758;28;20053;-68
2022/03/18 03:17:57;;;;;;;26.35;17.50;;;;;;;0.66;71.74;96447.06;5052196;28;20116;-68
2022/03/18 03:20:22;;;;;;;21.23;15.38;;;;;;;0.64;71.28;96453.91;5053174;28;20033;-68
2022/03/18 03:22:48;;;;;;;20.05;14.70;;;;;;;0.66;71.71;96447.06;5052338;28;20041;-68
2022/03/18 03:25:13;;;;;;;18.75;13.48;;;;;;;0.74;71.03;96454.59;5041858;28;20457;-68
2022/03/18 03:27:38;;;;;;;18.23;13.35;;;;;;;0.70;71.40;96458.06;5036449;28;20559;-68
2022/03/18 03:30:08;;;;;;;26.17;16.23;;;;;;;0.47;71.72;96467.00;5035071;28;20040;-68
2022/03/18 03:32:33;;;;;;;25.33;17.17;;;;;;;0.36;72.47;96463.78;5034367;28;20029;-68
2022/03/18 03:34:59;;;;;;;25.00;16.65;;;;;;;0.47;72.37;96468.72;5033162;28;20400;-68
2022/03/18 03:37:25;;;;;;;22.95;16.05;;;;;;;0.46;71.85;96470.44;5022787;28;20060;-68
2022/03/18 03:39:51;;;;;;;22.48;16.35;;;;;;;0.49;71.60;96475.50;5028503;28;20510;-68
2022/03/18 03:42:17;;;;;;;25.52;16.70;;;;;;;0.51;71.64;96480.59;5049479;28;20032;-68
2022/03/18 03:44:43;;;;;;;20.52;14.65;;;;;;;0.54;71.82;96480.53;5033137;28;20041;-68
2022/03/18 03:47:08;;;;;;;23.05;15.90;;;;;;;0.55;71.31;96477.09;5035179;28;20025;-68
2022/03/18 03:49:33;;;;;;;17.55;12.07;;;;;;;0.50;68.52;96482.28;5043327;28;20495;-68
2022/03/18 03:51:59;;;;;;;17.88;12.05;;;;;;;0.43;68.75;96473.03;5050544;28;20502;-68
2022/03/18 03:54:27;;;;;;;19.75;12.30;;;;;;;0.43;68.12;96486.66;5033894;28;20021;-68
2022/03/18 03:56:53;;;;;;;17.98;11.30;;;;;;;0.39;68.12;96476.50;5041261;28;20492;-68
2022/03/18 03:59:18;;;;;;;15.63;10.75;;;;;;;0.38;66.83;96479.94;5034815;28;20069;-68
2022/03/18 04:01:44;;;;;;;16.65;11.32;;;;;;;0.41;67.23;96485.00;5052093;28;20037;-68
2022/03/18 04:04:09;;;;;;;17.00;11.00;;;;;;;0.24;66.96;96498.06;5046239;28;20022;-68
2022/03/18 04:06:35;;;;;;;15.18;10.52;;;;;;;0.22;66.87;96502.34;5038293;28;20045;-68
2022/03/18 04:09:00;;;;;;;16.38;9.98;;;;;;;0.16;66.48;96505.00;5013235;28;20032;-68
2022/03/18 04:11:25;;;;;;;17.65;10.40;;;;;;;0.11;66.46;96501.66;5040075;28;20041;-68
2022/03/18 04:13:51;;;;;;;15.07;10.38;;;;;;;0.05;66.85;96506.88;5049182;28;20518;-68
2022/03/18 04:16:16;;;;;;;14.70;10.75;;;;;;;0.06;66.50;96508.56;5031685;28;20057;-68
2022/03/18 04:18:42;;;;;;;14.50;9.13;;;;;;;0.08;65.95;96511.94;5048573;28;20053;-68
2022/03/18 04:21:07;;;;;;;12.52;9.05;;;;;;;-0.10;66.36;96513.88;5031783;28;20022;-68
2022/03/18 04:23:33;;;;;;;14.30;9.70;;;;;;;-0.15;66.44;96520.78;5031915;28;20037;-68
2022/03/18 04:25:58;;;;;;;13.50;9.43;;;;;;;-0.15;66.49;96522.50;5033132;28;20037;-68
2022/03/18 04:28:23;;;;;;;16.90;8.98;;;;;;;-0.20;65.67;96526.81;5043081;28;20021;-68
2022/03/18 04:30:49;;;;;;;11.98;8.25;;;;;;;-0.26;66.40;96527.75;5032031;28;20033;-68
2022/03/18 04:33:14;;;;;;;13.38;9.43;;;;;;;-0.39;66.95;96529.63;5048200;28;20037;-68
2022/03/18 04:35:40;;;;;;;13.50;8.85;;;;;;;-0.40;66.51;96532.19;5015673;28;20021;-68
2022/03/18 04:38:05;;;;;;;12.90;9.13;;;;;;;-0.41;66.23;96525.41;5038873;28;20036;-68
2022/03/18 04:40:32;;;;;;;12.13;8.35;;;;;;;-0.39;66.39;96532.19;5017975;28;20038;-68
2022/03/18 04:42:57;;;;;;;12.35;8.93;;;;;;;-0.35;66.41;96527.88;5027195;28;20050;-68
2022/03/18 04:45:23;;;;;;;13.38;9.38;;;;;;;-0.42;66.25;96524.53;5015285;28;20030;-68
2022/03/18 04:47:48;;;;;;;13.65;8.98;;;;;;;-0.35;65.96;96525.31;5034614;28;20490;-68
2022/03/18 04:50:13;;;;;;;13.60;9.35;;;;;;;-0.65;67.04;96531.63;5051697;28;20379;-68
2022/03/18 04:52:39;;;;;;;13.57;9.35;;;;;;;-0.65;66.95;96535.03;5018434;28;20037;-68
2022/03/18 04:55:05;;;;;;;13.98;8.00;;;;;;;-0.61;66.64;96541.81;5037099;28;20032;-68
2022/03/18 04:57:31;;;;;;;14.32;8.70;;;;;;;-0.71;66.13;96532.53;5072602;28;20029;-68
2022/03/18 04:59:56;;;;;;;13.88;8.43;;;;;;;-0.64;66.21;96541.84;5067102;28;20025;-68
2022/03/18 05:02:22;;;;;;;11.93;8.23;;;;;;;-0.68;65.90;96561.44;5018134;28;20057;-68
2022/03/18 05:04:48;;;;;;;13.57;8.07;;;;;;;-0.64;65.46;96552.06;5034765;28;20076;-68
2022/03/18 05:07:14;;;;;;;12.88;7.82;;;;;;;-0.57;65.30;96558.75;5034854;28;20086;-68
2022/03/18 05:09:40;;;;;;;12.90;9.00;;;;;;;-0.56;66.04;96559.59;5051341;28;20394;-68
2022/03/18 05:12:11;;;;;;;12.80;8.52;;;;;;;-0.62;65.83;96565.63;5050852;28;20111;-68
2022/03/18 05:14:38;;;;;;;13.65;8.65;;;;;;;-0.61;65.83;96561.34;5038463;28;20517;-68
2022/03/18 05:17:04;;;;;;;13.23;8.20;;;;;;;-0.57;65.24;96555.38;5070823;28;20324;-68
2022/03/18 05:19:30;;;;;;;11.55;7.25;;;;;;;-0.47;64.41;96565.47;5017083;28;20598;-68
2022/03/18 05:21:55;;;;;;;10.48;7.40;;;;;;;-0.44;64.65;96568.84;5014540;28;20577;-68
2022/03/18 05:24:21;;;;;;;11.50;7.53;;;;;;;-0.61;64.90;96557.13;5031742;28;20029;-68
2022/03/18 05:26:46;;;;;;;12.35;7.57;;;;;;;-0.61;64.93;96557.13;5034217;28;20388;-68
2022/03/18 05:29:13;;;;;;;14.00;7.55;;;;;;;-0.59;64.83;96557.91;5050913;28;20021;-68
2022/03/18 05:31:39;;;;;;;10.80;7.68;;;;;;;-0.32;63.37;96563.56;5030665;28;20463;-68
2022/03/18 05:34:04;;;;;;;12.32;7.47;;;;;;;-0.37;63.88;96560.22;5014353;28;20033;-68
2022/03/18 05:36:30;;;;;;;11.40;7.60;;;;;;;-0.34;63.93;96572.97;5015013;28;20029;-68
2022/03/18 05:38:56;;;;;;;11.77;8.02;;;;;;;-0.45;64.29;96567.97;5045444;28;20408;-68
2022/03/18 05:41:21;;;;;;;11.98;7.50;;;;;;;-0.46;64.71;96566.28;5033129;28;20022;-68
2022/03/18 05:43:46;;;;;;;14.40;7.63;;;;;;;-0.26;64.50;96563.50;5039437;28;20037;-68
2022/03/18 05:46:12;;;;;;;14.20;7.95;;;;;;;0.10;64.14;96576.66;5049004;28;20036;-68
2022/03/18 05:48:38;;;;;;;11.88;7.60;;;;;;;0.52;62.73;96579.44;5034523;28;20419;-68
2022/03/18 05:51:03;;;;;;;12.20;7.15;;;;;;;0.97;60.54;96582.13;5031644;28;20041;-68
2022/03/18 05:53:29;;;;;;;12.80;8.00;;;;;;;1.45;59.53;96584.69;5035087;28;20033;-68
2022/03/18 05:58:39;;;;;;;12.75;7.00;;;;;;;2.10;55.95;96585.09;5027603;28;20040;-68
2022/03/18 06:01:05;;;;;;;11.27;6.32;;;;;;;2.40;55.74;96583.56;5038595;28;20025;-68
2022/03/18 06:03:30;;;;;;;11.02;7.45;;;;;;;2.63;54.11;96585.59;5031499;28;20034;-69
2022/03/18 06:05:56;;;;;;;12.40;6.68;;;;;;;2.64;53.53;96581.31;5013459;28;20033;-69
2022/03/18 06:13:49;;;;;;;9.63;6.88;;;;;;;3.01;52.76;96591.53;5041417;28;20083;-69
2022/03/18 06:16:14;;;;;;;8.60;6.47;;;;;;;2.97;52.38;96619.88;5033558;28;20641;-68
2022/03/18 06:18:40;;;;;;;9.48;6.70;;;;;;;2.62;52.15;96611.31;5051144;28;20056;-69
2022/03/18 06:21:09;;;;;;;10.57;6.80;;;;;;;2.77;52.23;96620.38;5044042;28;20029;-69
2022/03/18 06:23:35;;;;;;;10.55;6.65;;;;;;;2.53;53.49;96614.91;4998083;28;20056;-67
2022/03/18 06:26:01;;;;;;;14.75;7.18;;;;;;;2.79;51.86;96621.19;5036766;28;20033;-67
2022/03/18 06:28:27;;;;;;;13.35;6.85;;;;;;;2.97;51.83;96613.03;5013502;28;20037;-68
2022/03/18 06:30:52;;;;;;;8.88;6.85;;;;;;;3.07;48.67;96608.53;5013431;28;20037;-67
2022/03/18 06:33:18;;;;;;;9.68;6.28;;;;;;;3.15;47.81;96616.88;5020516;28;20053;-67
2022/03/18 06:35:43;;;;;;;9.30;6.00;;;;;;;2.79;47.04;96621.19;5043115;28;20030;-67
2022/03/18 06:38:09;;;;;;;9.48;6.50;;;;;;;2.74;47.55;96623.84;5030511;28;20022;-67
2022/03/18 06:40:34;;;;;;;8.90;6.07;;;;;;;2.58;48.84;96628.47;5031384;28;20099;-67
2022/03/18 06:43:00;;;;;;;10.73;6.57;;;;;;;3.03;47.41;96638.53;5013439;28;20043;-68
2022/03/18 06:45:26;;;;;;;8.40;5.65;;;;;;;2.83;47.94;96638.19;5038420;28;20036;-67
2022/03/18 06:47:52;;;;;;;11.48;6.95;;;;;;;2.80;47.91;96645.97;5049508;28;20033;-67
2022/03/18 06:50:17;;;;;;;9.85;6.45;;;;;;;2.95;46.21;96640.44;5045356;28;20036;-67
2022/03/18 06:52:42;;;;;;;9.82;6.50;;;;;;;2.67;48.02;96642.81;5033708;28;20096;-68
2022/03/18 06:55:08;;;;;;;11.00;7.28;;;;;;;2.24;50.13;96652.31;5008887;28;20080;-67
2022/03/18 06:57:34;;;;;;;10.68;6.80;;;;;;;2.14;50.60;96649.97;5013729;28;20034;-69
2022/03/18 06:59:59;;;;;;;9.45;6.10;;;;;;;2.34;49.20;96654.66;5035484;28;20037;-67
2022/03/18 07:02:26;;;;;;;9.45;6.65;;;;;;;2.29;50.23;96647.09;5021636;28;20056;-69
2022/03/18 07:04:51;;;;;;;13.23;8.73;;;;;;;2.43;51.84;96662.19;5020827;28;20059;-68
2022/03/18 07:07:17;;;;;;;9.60;7.15;;;;;;;2.50;49.26;96663.72;5046126;28;20041;-66
2022/03/18 07:09:42;;;;;;;10.30;6.32;;;;;;;2.43;47.31;96667.31;5003230;28;20029;-67
2022/03/18 07:12:09;;;;;;;10.23;7.18;;;;;;;2.28;48.71;96671.03;5032495;28;20087;-67
2022/03/18 07:14:34;;;;;;;10.30;7.00;;;;;;;1.96;49.22;96672.53;5028629;28;20101;-67
2022/03/18 07:19:43;;;;;;;11.32;7.55;;;;;;;1.49;50.10;96663.16;5047016;28;20510;-70
2022/03/18 07:22:09;;;;;;;10.18;7.05;;;;;;;1.37;51.01;96689.00;5049192;28;20290;-68
2022/03/18 07:24:34;;;;;;;11.77;7.13;;;;;;;1.07;51.76;96686.06;5048207;28;20021;-68
2022/03/18 07:27:00;;;;;;;10.30;6.35;;;;;;;0.77;51.55;96685.66;5028391;28;20057;-68
2022/03/18 07:29:25;;;;;;;13.02;6.70;;;;;;;0.76;52.50;96686.53;5039147;28;20033;-68
2022/03/18 07:31:55;;;;;;;10.13;6.72;;;;;;;0.71;52.30;96678.06;5029076;28;20504;-68
2022/03/18 07:34:23;;;;;;;11.40;7.05;;;;;;;0.65;51.96;96689.25;5002070;28;20415;-67
2022/03/18 07:36:49;;;;;;;11.50;8.18;;;;;;;0.78;53.99;96695.03;5032201;28;20037;-69
2022/03/18 07:39:14;;;;;;;12.15;7.13;;;;;;;0.85;53.48;96676.16;5037265;28;20415;-72
2022/03/18 07:41:40;;;;;;;13.52;8.38;;;;;;;1.14;53.20;96685.06;5045483;28;20493;-68
2022/03/18 07:44:05;;;;;;;9.38;6.43;;;;;;;1.38;52.26;96691.53;5016578;28;20029;-68
2022/03/18 07:46:31;;;;;;;9.32;5.38;;;;;;;1.36;50.00;96692.41;5012466;28;20052;-68
2022/03/18 07:48:56;;;;;;;9.82;6.88;;;;;;;1.44;52.04;96688.00;5034807;28;20033;-68
2022/03/18 07:51:21;;;;;;;11.57;8.18;;;;;;;1.72;51.06;96689.19;5052499;28;20079;-69
2022/03/18 07:53:47;;;;;;;10.20;6.90;;;;;;;2.00;49.20;96692.09;5034102;28;20037;-69
2022/03/18 07:56:12;;;;;;;12.15;8.00;;;;;;;2.19;51.36;96687.44;5036189;28;20029;-67
2022/03/18 07:58:38;;;;;;;9.48;6.93;;;;;;;2.32;49.42;96685.50;5043354;28;20492;-66
2022/03/18 08:01:05;;;;;;;12.00;7.93;;;;;;;2.32;49.87;96690.63;5032800;28;20036;-66
2022/03/18 08:03:31;;;;;;;10.13;7.28;;;;;;;2.44;47.54;96685.22;5025010;28;20068;-67
2022/03/18 08:05:56;;;;;;;13.55;7.88;;;;;;;2.56;48.10;96691.81;5051047;28;20428;-67
2022/03/18 08:08:21;;;;;;;13.18;8.68;;;;;;;2.67;48.45;96689.88;5032965;28;20034;-67
2022/03/18 08:10:47;;;;;;;14.30;8.48;;;;;;;2.67;49.10;96679.63;5033327;28;20084;-67
2022/03/18 08:13:13;;;;;;;11.00;6.97;;;;;;;3.03;47.20;96701.91;5032345;28;20064;-66
2022/03/18 08:15:38;;;;;;;10.15;7.07;;;;;;;3.05;47.41;96700.16;5032409;28;20108;-66
2022/03/18 08:18:04;;;;;;;9.68;6.50;;;;;;;2.81;46.83;96702.38;5015486;28;20506;-67
2022/03/18 08:20:29;;;;;;;12.35;7.40;;;;;;;2.64;46.33;96695.06;5032386;28;20025;-66
2022/03/18 08:22:55;;;;;;;12.07;7.55;;;;;;;2.54;48.58;96696.16;5032160;28;20048;-67
2022/03/18 08:25:20;;;;;;;10.63;7.20;;;;;;;2.83;45.22;96689.53;5032236;28;20026;-67
2022/03/18 08:27:49;;;;;;;12.02;8.30;;;;;;;2.97;46.30;96681.50;5032126;28;20140;-66
2022/03/18 08:30:14;;;;;;;10.45;7.45;;;;;;;2.96;47.14;96685.81;5032096;28;20117;-67
2022/03/18 08:32:40;;;;;;;14.23;7.65;;;;;;;2.79;47.24;96682.78;5032078;28;20108;-67
2022/03/18 08:35:07;;;;;;;11.57;8.02;;;;;;;3.07;44.32;96678.69;5033385;28;20025;-67
2022/03/18 08:40:16;;;;;;;13.05;8.95;;;;;;;3.09;43.87;96692.34;5032479;28;20052;-66
2022/03/18 08:42:42;;;;;;;12.18;7.53;;;;;;;2.94;44.41;96689.28;5033034;28;20033;-67
2022/03/18 08:45:08;;;;;;;16.27;8.55;;;;;;;2.88;46.75;96692.84;5031943;28;20380;-67
2022/03/18 08:47:33;;;;;;;10.98;7.53;;;;;;;2.84;44.85;96675.81;5033243;28;20124;-67
2022/03/18 08:49:59;;;;;;;11.75;6.50;;;;;;;2.71;45.14;96688.09;5033093;28;20022;-67
2022/03/18 08:52:24;;;;;;;10.32;6.35;;;;;;;2.40;45.86;96691.31;5015235;28;20041;-66
2022/03/18 08:54:49;;;;;;;9.68;7.05;;;;;;;2.27;46.60;96683.91;5032954;28;20030;-66
2022/03/18 08:57:15;;;;;;;10.15;7.20;;;;;;;2.38;47.64;96681.97;5032797;28;20086;-66
2022/03/18 08:59:41;;;;;;;13.75;7.28;;;;;;;2.55;47.63;96684.16;5014373;28;20138;-67
2022/03/18 09:02:06;;;;;;;11.38;7.15;;;;;;;2.74;48.04;96684.59;5014860;28;20526;-67
2022/03/18 09:04:32;;;;;;;9.02;5.97;;;;;;;2.94;43.99;96676.44;5031493;28;20025;-67
2022/03/18 09:06:57;;;;;;;9.50;6.25;;;;;;;3.07;41.14;96675.28;5032623;28;20463;-67
2022/03/18 09:09:23;;;;;;;14.00;8.02;;;;;;;3.22;41.07;96656.09;5031307;28;20021;-66
2022/03/18 09:11:48;;;;;;;11.20;7.90;;;;;;;3.53;40.51;96674.13;5031378;28;20034;-68
2022/03/18 09:14:14;;;;;;;9.48;6.82;;;;;;;3.68;41.34;96672.94;5014779;28;20025;-68
2022/03/18 09:16:39;;;;;;;14.30;7.55;;;;;;;3.77;41.00;96675.25;5032940;28;20021;-66
2022/03/18 09:19:05;;;;;;;11.15;7.03;;;;;;;3.70;40.48;96668.56;5031097;28;20103;-67
2022/03/18 09:21:31;;;;;;;9.98;6.95;;;;;;;3.88;41.19;96678.38;5031247;28;20130;-67
2022/03/18 09:23:56;;;;;;;10.02;6.70;;;;;;;3.92;40.80;96677.38;5031362;28;20039;-65
2022/03/18 09:26:22;;;;;;;11.00;7.55;;;;;;;3.75;41.60;96682.97;5032593;28;20034;-65
2022/03/18 09:28:47;;;;;;;10.60;6.65;;;;;;;3.64;39.10;96684.16;5031065;28;20029;-66
2022/03/18 09:31:13;;;;;;;10.23;6.80;;;;;;;3.77;40.64;96682.97;5031059;28;20435;-67
2022/03/18 09:33:41;;;;;;;13.68;8.38;;;;;;;3.87;40.63;96681.81;5030907;28;20083;-67
2022/03/18 09:36:07;;;;;;;14.65;8.35;;;;;;;4.03;40.83;96683.09;5030959;28;20033;-65
2022/03/18 09:38:32;;;;;;;9.50;6.53;;;;;;;4.03;40.02;96684.81;5031077;28;20443;-65
2022/03/18 09:40:57;;;;;;;9.50;6.85;;;;;;;3.84;37.51;96687.03;5030883;28;20025;-65
2022/03/18 09:43:23;;;;;;;10.98;7.05;;;;;;;3.66;39.11;96683.22;5030685;28;20033;-65
2022/03/18 09:45:48;;;;;;;12.27;8.30;;;;;;;3.64;39.12;96685.00;5032225;28;20303;-65
2022/03/18 09:48:14;;;;;;;9.93;7.18;;;;;;;3.76;38.77;96674.41;5030675;28;20029;-67
2022/03/18 09:50:40;;;;;;;9.93;6.97;;;;;;;3.71;38.67;96672.84;5031656;28;20056;-65
2022/03/18 09:53:06;;;;;;;11.80;7.47;;;;;;;3.92;40.23;96667.09;5030551;28;20107;-66
2022/03/18 09:55:31;;;;;;;12.23;7.20;;;;;;;3.97;39.17;96672.13;5030569;28;20476;-66
2022/03/18 09:57:57;;;;;;;11.15;7.53;;;;;;;4.02;38.29;96665.97;5030403;28;20546;-66
2022/03/18 10:00:22;;;;;;;11.10;7.68;;;;;;;4.05;39.71;96677.06;5013952;28;20037;-67
2022/03/18 10:03:18;;;;;;;10.68;7.15;;;;;;;3.97;37.89;96672.13;5030306;28;20112;-65
2022/03/18 10:05:59;;;;;;;10.70;7.35;;;;;;;3.71;38.46;96681.38;5030533;28;20112;-67
2022/03/18 10:08:44;;;;;;;11.88;7.30;;;;;;;3.57;38.11;96675.75;5030334;28;20022;-68
2022/03/18 10:11:33;;;;;;;11.60;7.53;;;;;;;3.80;39.98;96670.03;5030955;28;20053;-68
2022/03/18 10:14:03;;;;;;;16.30;8.30;;;;;;;3.99;38.53;96676.34;5030312;28;20144;-65
2022/03/18 10:16:38;;;;;;;11.82;7.28;;;;;;;3.55;37.73;96670.66;5030266;28;20037;-66
2022/03/18 10:19:09;;;;;;;10.10;7.05;;;;;;;3.34;38.46;96676.31;5031350;28;20053;-65
2022/03/18 10:22:01;;;;;;;11.57;7.00;;;;;;;3.51;38.89;96669.06;5013496;28;20030;-65
2022/03/18 10:24:27;;;;;;;11.45;7.07;;;;;;;3.86;37.51;96664.69;5030106;28;20050;-65
2022/03/18 10:27:08;;;;;;;10.52;7.15;;;;;;;3.71;38.13;96665.13;5030052;28;20037;-67
2022/03/18 10:29:43;;;;;;;11.18;7.68;;;;;;;3.68;39.87;96662.66;5030008;28;20025;-68
2022/03/18 10:32:09;;;;;;;11.75;7.70;;;;;;;3.57;39.88;96663.75;5029862;28;20040;-68
2022/03/18 10:37:22;;;;;;;12.77;8.10;;;;;;;3.74;40.07;96660.75;5029975;28;20518;-66
2022/03/18 10:39:51;;;;;;;8.65;6.50;;;;;;;3.62;39.15;96667.91;5029784;28;20033;-67
2022/03/18 10:42:18;;;;;;;12.82;8.63;;;;;;;3.51;41.11;96670.75;5029677;28;20033;-67
2022/03/18 10:44:50;;;;;;;10.93;7.57;;;;;;;3.41;41.67;96667.59;5029767;28;20030;-67
2022/03/18 10:47:28;;;;;;;10.93;7.35;;;;;;;3.06;42.66;96677.00;5030886;28;20033;-67
2022/03/18 10:50:11;;;;;;;11.13;7.60;;;;;;;2.88;43.21;96667.16;5030974;28;20026;-67
2022/03/18 10:52:37;;;;;;;8.95;6.80;;;;;;;2.75;43.05;96666.59;5030873;28;20472;-67
2022/03/18 10:55:15;;;;;;;10.63;7.60;;;;;;;2.75;42.63;96668.31;5029679;28;20030;-66
2022/03/18 10:57:48;;;;;;;12.18;6.43;;;;;;;2.80;40.77;96666.50;5030766;28;20029;-67
2022/03/18 11:00:14;;;;;;;13.75;7.90;;;;;;;2.74;40.53;96664.06;5030995;28;20030;-67
2022/03/18 11:02:39;;;;;;;10.30;6.63;;;;;;;2.52;38.75;96651.72;5030629;28;20467;-67
2022/03/18 11:05:05;;;;;;;11.10;6.50;;;;;;;2.69;39.51;96654.75;5029639;28;20143;-67
2022/03/18 11:07:30;;;;;;;10.30;6.45;;;;;;;2.84;39.49;96647.56;5029389;28;20090;-67
2022/03/18 11:12:41;;;;;;;12.10;7.00;;;;;;;3.19;40.97;96649.31;5030670;28;20041;-67
2022/03/18 11:15:07;;;;;;;10.27;6.95;;;;;;;3.36;41.12;96651.44;5029543;28;20029;-67
2022/03/18 11:17:32;;;;;;;10.38;6.30;;;;;;;3.35;38.45;96642.06;5029503;28;20484;-65
2022/03/18 11:19:59;;;;;;;8.52;6.35;;;;;;;3.29;39.50;96648.19;5029435;28;20517;-67
2022/03/18 11:22:25;;;;;;;10.07;6.50;;;;;;;3.09;38.64;96652.97;5031135;28;20087;-68
2022/03/18 11:24:51;;;;;;;9.18;6.70;;;;;;;3.15;38.69;96637.44;5016720;28;20033;-69
2022/03/18 11:27:17;;;;;;;8.40;6.28;;;;;;;3.35;37.00;96634.34;5033346;28;20564;-69
2022/03/18 11:29:43;;;;;;;10.30;6.43;;;;;;;3.63;38.57;96639.63;5033332;28;20087;-69
2022/03/18 11:32:15;;;;;;;8.68;6.38;;;;;;;3.91;37.32;96638.88;5033187;28;20037;-69
2022/03/18 11:34:47;;;;;;;9.60;6.68;;;;;;;4.19;37.70;96641.50;5034388;28;20043;-67
2022/03/18 11:37:13;;;;;;;12.00;7.07;;;;;;;4.44;37.56;96639.91;5034206;28;20412;-67
2022/03/18 11:39:38;;;;;;;11.10;7.10;;;;;;;4.62;37.70;96635.91;5034284;28;20029;-67
2022/03/18 11:42:05;;;;;;;8.75;6.28;;;;;;;4.53;36.53;96630.22;5016309;28;20045;-68
2022/03/18 11:44:39;;;;;;;10.60;6.55;;;;;;;4.31;35.91;96625.72;5034094;28;20037;-67
2022/03/18 11:47:23;;;;;;;12.77;6.80;;;;;;;4.25;36.99;96626.72;5032908;28;20037;-67
2022/03/18 11:49:49;;;;;;;10.07;6.55;;;;;;;4.14;37.41;96625.38;5034183;28;20031;-67
2022/03/18 11:52:14;;;;;;;9.27;6.65;;;;;;;4.11;37.73;96639.16;5032875;28;20037;-67
2022/03/18 11:54:52;;;;;;;9.90;6.55;;;;;;;3.89;37.86;96633.75;5034024;28;20034;-67